In Rescue
 
Open Full Screen Window  High Contrast Mode
Wind Gusting 15 knots
11
March 29, 2020 9:43 PM EDT
Present Weather: Drizzle
Weather Information
Wind Direction
  230 °
Wind Speed
  11 kt (13 mph)
Wind Gust
  15 kt (17 mph)
Altimeter
29.63 in
Visibility
10 SM
Temperature
06° C
43° F
Dewpoint
04° C
39° F
Humidity
87%
1hr Rain Fall
00.00 in.
24hr Rain Fall
00.47 in.
Sky Condition
Overcast @ 2,000 ft
MVFR

METAR KOSC 300143Z AUTO 23011G15KT 10SM DZ OVC020 06/04 A2963 RMK AO2 T00600036

FAA Disclaimer: The data displayed is for advisory purposes only and is not to be used for flight planning or operations.